Time;durP1;ratioP1;P1;durP2;ratioP2;P2;SDS_P1;SDS_P2;PMS_P1;PMS_P2;Temp;Humidity;BMP_temperature;BMP_pressure;BME280_temperature;BME280_humidity;BME280_pressure;Samples;Min_cycle;Max_cycle;Signal;HPM_P1;HPM_P2
2021/12/19 00:00:54;;;;;;;;;;;2.10;99.90;;;;;;5110484;28;20014;-79
2021/12/19 00:03:49;;;;;;;;;;;2.00;99.90;;;;;;5107872;28;19946;-79
2021/12/19 00:09:03;;;;;;;;;;;2.00;99.90;;;;;;5109865;28;19920;-79
2021/12/19 00:11:30;;;;;;;;;;;2.00;99.90;;;;;;5096892;28;20439;-79
2021/12/19 00:13:58;;;;;;;;;;;2.00;99.90;;;;;;5107343;27;19923;-79
2021/12/19 00:16:25;;;;;;;;;;;2.00;99.90;;;;;;5109686;28;19935;-79
2021/12/19 00:18:52;;;;;;;;;;;2.00;99.90;;;;;;5110635;28;20274;-79
2021/12/19 00:21:20;;;;;;;;;;;2.00;99.90;;;;;;5104375;28;19933;-79
2021/12/19 00:23:47;;;;;;;;;;;2.00;99.90;;;;;;5111693;27;19939;-79
2021/12/19 00:26:17;;;;;;;;;;;2.00;99.90;;;;;;5110203;28;19932;-79
2021/12/19 00:28:44;;;;;;;;;;;2.00;99.90;;;;;;5109199;28;19985;-79
2021/12/19 00:31:11;;;;;;;;;;;2.00;99.90;;;;;;5109407;27;19923;-79
2021/12/19 00:33:39;;;;;;;;;;;2.00;99.90;;;;;;5113896;27;20260;-79
2021/12/19 00:36:06;;;;;;;;;;;2.10;99.90;;;;;;5110604;28;19935;-79
2021/12/19 00:38:33;;;;;;;;;;;2.00;99.90;;;;;;5112188;27;19969;-79
2021/12/19 00:41:00;;;;;;;;;;;2.00;99.90;;;;;;5110119;27;19931;-79
2021/12/19 00:43:35;;;;;;;;;;;2.00;99.90;;;;;;5109258;27;20002;-79
2021/12/19 00:46:06;;;;;;;;;;;2.00;99.90;;;;;;5107875;27;20014;-79
2021/12/19 00:48:34;;;;;;;;;;;1.90;99.90;;;;;;5109172;28;20302;-79
2021/12/19 00:51:01;;;;;;;;;;;1.90;99.90;;;;;;5110082;28;19932;-79
2021/12/19 00:53:28;;;;;;;;;;;1.90;99.90;;;;;;5103957;28;19924;-79
2021/12/19 00:55:54;;;;;;;;;;;1.90;99.90;;;;;;5105820;28;19931;-79
2021/12/19 00:58:21;;;;;;;;;;;1.90;99.90;;;;;;5106806;28;20343;-79
2021/12/19 01:00:50;;;;;;;;;;;1.90;99.90;;;;;;5112019;27;19927;-79
2021/12/19 01:03:17;;;;;;;;;;;1.90;99.90;;;;;;5107246;28;20325;-79
2021/12/19 01:05:44;;;;;;;;;;;1.90;99.90;;;;;;5110223;27;19927;-79
2021/12/19 01:08:12;;;;;;;;;;;1.90;99.90;;;;;;5106136;27;20391;-79
2021/12/19 01:10:40;;;;;;;;;;;1.90;99.90;;;;;;5112239;27;19928;-79
2021/12/19 01:13:07;;;;;;;;;;;1.90;99.90;;;;;;5110596;27;19928;-79
2021/12/19 01:15:34;;;;;;;;;;;1.90;99.90;;;;;;5108615;27;20397;-79
2021/12/19 01:18:04;;;;;;;;;;;1.90;99.90;;;;;;5108166;28;19924;-79
2021/12/19 01:20:32;;;;;;;;;;;1.90;99.90;;;;;;5124389;27;19923;-78
2021/12/19 01:23:00;;;;;;;;;;;1.90;99.90;;;;;;5106149;28;20344;-79
2021/12/19 01:25:27;;;;;;;;;;;1.90;99.90;;;;;;5107518;28;20401;-78
2021/12/19 01:27:54;;;;;;;;;;;1.90;99.90;;;;;;5105419;28;20017;-79
2021/12/19 01:30:21;;;;;;;;;;;1.80;99.90;;;;;;5104248;28;19924;-79
2021/12/19 01:32:48;;;;;;;;;;;1.80;99.90;;;;;;5109320;28;20018;-79
2021/12/19 01:35:18;;;;;;;;;;;1.80;99.90;;;;;;5108343;28;20328;-79
2021/12/19 01:37:45;;;;;;;;;;;1.80;99.90;;;;;;5108234;28;19923;-79
2021/12/19 01:40:13;;;;;;;;;;;1.80;99.90;;;;;;5107493;28;20018;-79
2021/12/19 01:42:41;;;;;;;;;;;1.80;99.90;;;;;;5107781;28;20454;-79
2021/12/19 01:45:09;;;;;;;;;;;1.80;99.90;;;;;;5113275;28;19928;-79
2021/12/19 01:47:36;;;;;;;;;;;1.80;99.90;;;;;;5105943;28;20343;-79
2021/12/19 01:50:04;;;;;;;;;;;1.80;99.90;;;;;;5107985;28;20313;-79
2021/12/19 01:52:32;;;;;;;;;;;1.80;99.90;;;;;;5109402;28;19923;-79
2021/12/19 01:54:59;;;;;;;;;;;1.80;99.90;;;;;;5109980;28;20377;-79
2021/12/19 01:57:27;;;;;;;;;;;1.80;99.90;;;;;;5120731;27;19924;-79
2021/12/19 01:59:54;;;;;;;;;;;1.80;99.90;;;;;;5104798;28;19928;-79
2021/12/19 02:02:22;;;;;;;;;;;1.80;99.90;;;;;;5102810;28;19924;-79
2021/12/19 02:04:49;;;;;;;;;;;1.80;99.90;;;;;;5104210;28;20350;-79
2021/12/19 02:07:16;;;;;;;;;;;1.80;99.90;;;;;;5110207;28;19927;-79
2021/12/19 02:09:44;;;;;;;;;;;1.80;99.90;;;;;;5107188;28;20389;-79
2021/12/19 02:12:12;;;;;;;;;;;1.80;99.90;;;;;;5103731;28;19931;-79
2021/12/19 02:14:39;;;;;;;;;;;1.80;99.90;;;;;;5108797;28;19939;-79
2021/12/19 02:17:06;;;;;;;;;;;1.80;99.90;;;;;;5108885;28;19923;-79
2021/12/19 02:19:33;;;;;;;;;;;1.80;99.90;;;;;;5102346;28;19946;-79
2021/12/19 02:22:01;;;;;;;;;;;1.80;99.90;;;;;;5105919;28;19961;-78
2021/12/19 02:24:28;;;;;;;;;;;1.80;99.90;;;;;;5104354;28;19923;-78
2021/12/19 02:26:55;;;;;;;;;;;1.80;99.90;;;;;;5113504;28;20446;-79
2021/12/19 02:29:22;;;;;;;;;;;1.70;99.90;;;;;;5112505;27;20305;-79
2021/12/19 02:31:50;;;;;;;;;;;1.80;99.90;;;;;;5107727;28;19931;-79
2021/12/19 02:34:21;;;;;;;;;;;1.70;99.90;;;;;;5105535;28;19930;-78
2021/12/19 02:36:56;;;;;;;;;;;1.70;99.90;;;;;;5102704;28;20304;-79
2021/12/19 02:39:52;;;;;;;;;;;1.70;99.90;;;;;;5108220;28;19930;-79
2021/12/19 02:50:35;;;;;;;;;;;1.70;99.90;;;;;;5107213;28;19920;-79
2021/12/19 02:55:33;;;;;;;;;;;1.70;99.90;;;;;;5189676;22;19925;-79
2021/12/19 02:58:00;;;;;;;;;;;1.70;99.90;;;;;;5093039;22;20480;-77
2021/12/19 03:00:27;;;;;;;;;;;1.70;99.90;;;;;;5080320;28;20015;-77
2021/12/19 03:02:53;;;;;;;;;;;1.70;99.90;;;;;;5068867;28;19929;-77
2021/12/19 03:05:20;;;;;;;;;;;1.70;99.90;;;;;;5071323;28;19971;-76
2021/12/19 03:07:50;;;;;;;;;;;1.70;99.90;;;;;;5059629;28;19957;-77
2021/12/19 03:13:10;;;;;;;;;;;1.70;99.90;;;;;;5072516;28;19925;-77
2021/12/19 03:18:24;;;;;;;;;;;1.70;99.90;;;;;;5066334;28;19920;-77
2021/12/19 03:20:51;;;;;;;;;;;1.70;99.90;;;;;;5068524;28;20000;-77
2021/12/19 03:23:18;;;;;;;;;;;1.70;99.90;;;;;;5081057;28;20443;-77
2021/12/19 03:25:45;;;;;;;;;;;1.70;99.90;;;;;;5067417;28;19936;-77
2021/12/19 03:28:14;;;;;;;;;;;1.60;99.90;;;;;;5069705;28;20397;-78
2021/12/19 03:30:42;;;;;;;;;;;1.60;99.90;;;;;;5069699;28;19932;-77
2021/12/19 03:33:09;;;;;;;;;;;1.60;99.90;;;;;;5060628;28;19958;-77
2021/12/19 03:35:36;;;;;;;;;;;1.70;99.90;;;;;;5076742;28;20428;-78
2021/12/19 03:38:06;;;;;;;;;;;1.70;99.90;;;;;;5067860;28;19924;-77
2021/12/19 03:40:37;;;;;;;;;;;1.70;99.90;;;;;;5061722;28;20036;-78
2021/12/19 03:43:06;;;;;;;;;;;1.60;99.90;;;;;;5066475;28;19924;-77
2021/12/19 03:45:35;;;;;;;;;;;1.70;99.90;;;;;;5063587;28;19924;-78
2021/12/19 03:48:03;;;;;;;;;;;1.60;99.90;;;;;;5072737;28;20534;-77
2021/12/19 03:50:32;;;;;;;;;;;1.70;99.90;;;;;;5064507;28;19932;-77
2021/12/19 03:53:00;;;;;;;;;;;1.70;99.90;;;;;;5066233;28;19928;-77
2021/12/19 03:55:27;;;;;;;;;;;1.70;99.90;;;;;;5064484;28;19924;-77
2021/12/19 03:57:57;;;;;;;;;;;1.70;99.90;;;;;;5064919;28;19924;-78
2021/12/19 04:00:26;;;;;;;;;;;1.60;99.90;;;;;;5067665;28;19924;-77
2021/12/19 04:02:55;;;;;;;;;;;1.70;99.90;;;;;;5060766;28;20398;-78
2021/12/19 04:05:22;;;;;;;;;;;1.60;99.90;;;;;;5068838;28;19924;-77
2021/12/19 04:07:50;;;;;;;;;;;1.60;99.90;;;;;;5068216;28;19987;-77
2021/12/19 04:10:17;;;;;;;;;;;1.60;99.90;;;;;;5066011;28;19964;-77
2021/12/19 04:12:44;;;;;;;;;;;1.60;99.90;;;;;;5066848;28;20054;-77
2021/12/19 04:15:11;;;;;;;;;;;1.60;99.90;;;;;;5065155;28;20374;-78
2021/12/19 04:17:38;;;;;;;;;;;1.60;99.90;;;;;;5065770;28;19925;-77
2021/12/19 04:20:07;;;;;;;;;;;1.60;99.90;;;;;;5067359;28;19954;-77
2021/12/19 04:22:34;;;;;;;;;;;1.60;99.90;;;;;;5067790;28;19925;-77
2021/12/19 04:25:01;;;;;;;;;;;1.60;99.90;;;;;;5062847;28;19924;-77
2021/12/19 04:27:30;;;;;;;;;;;1.60;99.90;;;;;;5064367;28;20397;-78
2021/12/19 04:29:57;;;;;;;;;;;1.60;99.90;;;;;;5067308;28;19955;-77
2021/12/19 04:32:30;;;;;;;;;;;1.60;99.90;;;;;;5063897;28;20002;-77
2021/12/19 04:34:58;;;;;;;;;;;1.60;99.90;;;;;;5062956;28;19924;-77
2021/12/19 04:37:50;;;;;;;;;;;1.60;99.90;;;;;;5060991;28;19924;-78
2021/12/19 04:40:19;;;;;;;;;;;1.60;99.90;;;;;;5064287;28;19925;-77
2021/12/19 04:51:12;;;;;;;;;;;1.60;99.90;;;;;;5064039;28;19929;-76
2021/12/19 04:53:54;;;;;;;;;;;1.50;99.90;;;;;;5067946;28;20428;-77
2021/12/19 04:56:35;;;;;;;;;;;1.60;99.90;;;;;;5066143;28;19928;-77
2021/12/19 05:02:11;;;;;;;;;;;1.50;99.90;;;;;;5061773;28;19924;-78
2021/12/19 05:15:42;;;;;;;;;;;1.50;99.90;;;;;;5064904;28;19931;-77
2021/12/19 05:18:10;;;;;;;;;;;1.50;99.90;;;;;;5067502;28;19931;-77
2021/12/19 05:20:39;;;;;;;;;;;1.50;99.90;;;;;;5064572;28;20055;-77
2021/12/19 05:23:16;;;;;;;;;;;1.50;99.90;;;;;;5065121;28;19932;-77
2021/12/19 05:25:45;;;;;;;;;;;1.50;99.90;;;;;;5065249;28;19925;-77
2021/12/19 05:28:12;;;;;;;;;;;1.50;99.90;;;;;;5070924;28;19929;-77
2021/12/19 05:30:39;;;;;;;;;;;1.50;99.90;;;;;;5060934;28;19932;-79
2021/12/19 05:33:07;;;;;;;;;;;1.50;99.90;;;;;;5059971;28;19928;-77
2021/12/19 05:35:55;;;;;;;;;;;1.50;99.90;;;;;;5077748;28;19932;-78
2021/12/19 05:46:57;;;;;;;;;;;1.50;99.90;;;;;;5059025;28;20448;-78
2021/12/19 05:49:24;;;;;;;;;;;1.50;99.90;;;;;;5061757;28;19964;-78
2021/12/19 05:51:51;;;;;;;;;;;1.40;99.90;;;;;;5066737;28;19973;-77
2021/12/19 05:54:18;;;;;;;;;;;1.40;99.90;;;;;;5059742;28;20329;-77
2021/12/19 05:56:47;;;;;;;;;;;1.40;99.90;;;;;;5073749;28;20016;-77
2021/12/19 05:59:14;;;;;;;;;;;1.40;99.90;;;;;;5066898;28;20073;-78
2021/12/19 06:01:42;;;;;;;;;;;1.40;99.90;;;;;;5066129;28;19933;-77
2021/12/19 06:04:09;;;;;;;;;;;1.40;99.90;;;;;;5068786;28;19932;-77
2021/12/19 06:06:37;;;;;;;;;;;1.40;99.90;;;;;;5060133;28;19924;-78
2021/12/19 06:09:05;;;;;;;;;;;1.40;99.90;;;;;;5063592;28;19936;-78
2021/12/19 06:11:32;;;;;;;;;;;1.40;99.90;;;;;;5073390;28;19947;-78
2021/12/19 06:14:00;;;;;;;;;;;1.40;99.90;;;;;;5069261;28;19931;-77
2021/12/19 06:16:27;;;;;;;;;;;1.40;99.90;;;;;;5068097;28;19978;-77
2021/12/19 06:18:54;;;;;;;;;;;1.40;99.90;;;;;;5069200;28;19966;-77
2021/12/19 06:21:21;;;;;;;;;;;1.40;99.90;;;;;;5071669;28;20023;-77
2021/12/19 06:23:48;;;;;;;;;;;1.40;99.90;;;;;;5083030;28;19960;-76
2021/12/19 06:26:15;;;;;;;;;;;1.40;99.90;;;;;;5070228;28;19925;-77
2021/12/19 06:28:42;;;;;;;;;;;1.40;99.90;;;;;;5072623;28;19960;-77
2021/12/19 06:31:11;;;;;;;;;;;1.30;99.90;;;;;;5072759;28;20295;-77
2021/12/19 06:33:38;;;;;;;;;;;1.30;99.90;;;;;;5063218;28;20301;-77
2021/12/19 06:36:06;;;;;;;;;;;1.40;99.90;;;;;;5070044;28;19967;-77
2021/12/19 06:38:33;;;;;;;;;;;1.40;99.90;;;;;;5061855;28;20019;-77
2021/12/19 06:40:59;;;;;;;;;;;1.40;99.90;;;;;;5069244;28;19964;-78
2021/12/19 06:43:30;;;;;;;;;;;1.30;99.90;;;;;;5065974;28;19932;-77
2021/12/19 06:45:57;;;;;;;;;;;1.40;99.90;;;;;;5067523;28;19939;-77
2021/12/19 06:48:25;;;;;;;;;;;1.30;99.90;;;;;;5069689;28;20211;-77
2021/12/19 06:50:52;;;;;;;;;;;1.30;99.90;;;;;;5072646;28;19939;-77
2021/12/19 06:53:19;;;;;;;;;;;1.40;99.90;;;;;;5071766;28;20019;-78
2021/12/19 06:55:46;;;;;;;;;;;1.30;99.90;;;;;;5069592;28;20295;-77
2021/12/19 06:58:13;;;;;;;;;;;1.30;99.90;;;;;;5069719;28;19928;-77
2021/12/19 07:00:40;;;;;;;;;;;1.30;99.90;;;;;;5066376;28;19931;-77
2021/12/19 07:03:09;;;;;;;;;;;1.30;99.90;;;;;;5068898;28;19931;-77
2021/12/19 07:05:38;;;;;;;;;;;1.40;99.90;;;;;;5067358;28;19924;-77
2021/12/19 07:08:05;;;;;;;;;;;1.30;99.90;;;;;;5074699;28;19929;-77
2021/12/19 07:10:32;;;;;;;;;;;1.30;99.90;;;;;;5058035;28;19929;-77
2021/12/19 07:13:00;;;;;;;;;;;1.40;99.90;;;;;;5080024;28;20455;-78
2021/12/19 07:15:27;;;;;;;;;;;1.40;99.90;;;;;;5063548;28;20394;-77
2021/12/19 07:17:55;;;;;;;;;;;1.30;99.90;;;;;;5065986;28;20321;-77
2021/12/19 07:20:24;;;;;;;;;;;1.30;99.90;;;;;;5065834;28;19929;-77
2021/12/19 07:22:52;;;;;;;;;;;1.40;99.90;;;;;;5065256;28;19925;-77
2021/12/19 07:25:19;;;;;;;;;;;1.30;99.90;;;;;;5066189;28;19932;-77
2021/12/19 07:27:46;;;;;;;;;;;1.30;99.90;;;;;;5061831;28;20376;-77
2021/12/19 07:30:13;;;;;;;;;;;1.30;99.90;;;;;;5065373;28;19957;-77
2021/12/19 07:32:41;;;;;;;;;;;1.30;99.90;;;;;;5064308;28;19931;-77
2021/12/19 07:35:10;;;;;;;;;;;1.30;99.90;;;;;;5082982;28;19924;-78
2021/12/19 07:37:37;;;;;;;;;;;1.30;99.90;;;;;;5064614;28;20386;-77
2021/12/19 07:40:13;;;;;;;;;;;1.30;99.90;;;;;;5066077;28;20030;-77
2021/12/19 07:42:40;;;;;;;;;;;1.30;99.90;;;;;;5065354;28;19931;-77
2021/12/19 07:45:08;;;;;;;;;;;1.30;99.90;;;;;;5066582;28;19939;-78
2021/12/19 07:47:35;;;;;;;;;;;1.30;99.90;;;;;;5064812;28;20046;-77
2021/12/19 07:50:02;;;;;;;;;;;1.30;99.90;;;;;;5065460;28;19924;-77
2021/12/19 07:52:29;;;;;;;;;;;1.30;99.90;;;;;;5064356;28;19954;-78
2021/12/19 07:54:56;;;;;;;;;;;1.30;99.90;;;;;;5085056;28;19924;-77
2021/12/19 07:57:24;;;;;;;;;;;1.30;99.90;;;;;;5069380;28;19982;-77
2021/12/19 07:59:51;;;;;;;;;;;1.30;99.90;;;;;;5062831;28;19925;-77
2021/12/19 08:02:21;;;;;;;;;;;1.30;99.90;;;;;;5082849;28;20750;-78
2021/12/19 08:04:48;;;;;;;;;;;1.30;99.90;;;;;;5067074;28;20269;-78
2021/12/19 08:07:17;;;;;;;;;;;1.30;99.90;;;;;;5060462;28;20303;-78
2021/12/19 08:09:59;;;;;;;;;;;1.30;99.90;;;;;;5062179;28;20378;-78
2021/12/19 08:12:26;;;;;;;;;;;1.30;99.90;;;;;;5062147;28;19933;-79
2021/12/19 08:14:53;;;;;;;;;;;1.30;99.90;;;;;;5067787;28;19934;-78
2021/12/19 08:17:21;;;;;;;;;;;1.30;99.90;;;;;;5061612;28;20013;-78
2021/12/19 08:19:48;;;;;;;;;;;1.30;99.90;;;;;;5068070;28;19935;-77
2021/12/19 08:22:15;;;;;;;;;;;1.30;99.90;;;;;;5078275;28;19931;-78
2021/12/19 08:24:42;;;;;;;;;;;1.30;99.90;;;;;;5065169;28;19932;-78
2021/12/19 08:27:09;;;;;;;;;;;1.30;99.90;;;;;;5065269;28;19932;-77
2021/12/19 08:29:37;;;;;;;;;;;1.30;99.90;;;;;;5065379;28;20010;-79
2021/12/19 08:32:05;;;;;;;;;;;1.30;99.90;;;;;;5068380;28;19925;-78
2021/12/19 08:34:32;;;;;;;;;;;1.30;99.90;;;;;;5063320;28;19931;-78
2021/12/19 08:36:59;;;;;;;;;;;1.30;99.90;;;;;;5062650;28;19924;-77
2021/12/19 08:39:28;;;;;;;;;;;1.30;99.90;;;;;;5065150;28;19925;-78
2021/12/19 08:41:55;;;;;;;;;;;1.30;99.90;;;;;;5060851;28;20356;-79
2021/12/19 08:44:22;;;;;;;;;;;1.30;99.90;;;;;;5079908;28;20428;-77
2021/12/19 08:49:19;;;;;;;;;;;1.30;99.90;;;;;;5094826;28;19939;-77
2021/12/19 08:51:46;;;;;;;;;;;1.30;99.90;;;;;;5092702;28;19924;-78
2021/12/19 08:54:13;;;;;;;;;;;1.30;99.90;;;;;;5081312;28;19924;-77
2021/12/19 08:56:40;;;;;;;;;;;1.30;99.90;;;;;;5062405;28;19950;-77
2021/12/19 08:59:07;;;;;;;;;;;1.30;99.90;;;;;;5066341;28;20345;-79
2021/12/19 09:01:36;;;;;;;;;;;1.30;99.90;;;;;;5056962;28;19970;-79
2021/12/19 09:04:03;;;;;;;;;;;1.30;99.90;;;;;;5080836;28;19930;-77
2021/12/19 09:06:31;;;;;;;;;;;1.30;99.90;;;;;;5082314;28;20456;-79
2021/12/19 09:08:58;;;;;;;;;;;1.30;99.90;;;;;;5065907;28;20332;-78
2021/12/19 09:11:25;;;;;;;;;;;1.30;99.90;;;;;;5080104;28;20382;-77
2021/12/19 09:13:52;;;;;;;;;;;1.30;99.90;;;;;;5068926;28;19939;-78
2021/12/19 09:16:19;;;;;;;;;;;1.30;99.90;;;;;;5066813;28;19928;-78
2021/12/19 09:18:46;;;;;;;;;;;1.30;99.90;;;;;;5106287;22;19931;-80
2021/12/19 09:21:13;;;;;;;;;;;1.30;99.90;;;;;;5120133;27;20313;-82
2021/12/19 09:23:43;;;;;;;;;;;1.30;99.90;;;;;;5096487;28;19924;-80
2021/12/19 09:26:11;;;;;;;;;;;1.30;99.90;;;;;;5081242;28;20023;-78
2021/12/19 09:28:38;;;;;;;;;;;1.30;99.90;;;;;;5082964;28;19931;-79
2021/12/19 09:31:05;;;;;;;;;;;1.30;99.90;;;;;;5079704;28;19930;-80
2021/12/19 09:33:32;;;;;;;;;;;1.30;99.90;;;;;;5073786;28;19928;-80
2021/12/19 09:36:00;;;;;;;;;;;1.30;99.90;;;;;;5102211;28;19924;-79
2021/12/19 09:38:28;;;;;;;;;;;1.30;99.90;;;;;;5073067;28;19924;-83
2021/12/19 09:41:00;;;;;;;;;;;1.30;99.90;;;;;;5109319;28;19928;-79
2021/12/19 09:43:42;;;;;;;;;;;1.30;99.90;;;;;;5081963;28;19959;-80
2021/12/19 09:46:13;;;;;;;;;;;1.30;99.90;;;;;;5076642;28;19924;-79
2021/12/19 09:48:41;;;;;;;;;;;1.30;99.90;;;;;;5096637;28;19928;-82
2021/12/19 09:51:09;;;;;;;;;;;1.30;99.90;;;;;;5091343;28;20002;-81
2021/12/19 09:53:36;;;;;;;;;;;1.30;99.90;;;;;;5076351;28;19932;-78
2021/12/19 09:56:05;;;;;;;;;;;1.30;99.90;;;;;;5105504;27;19932;-80
2021/12/19 09:58:33;;;;;;;;;;;1.30;99.90;;;;;;5088205;28;20317;-78
2021/12/19 10:01:00;;;;;;;;;;;1.30;99.90;;;;;;5091864;28;19924;-79
2021/12/19 10:03:27;;;;;;;;;;;1.30;99.90;;;;;;5076451;28;19924;-79
2021/12/19 10:06:08;;;;;;;;;;;1.30;99.90;;;;;;5104393;27;20447;-79
2021/12/19 10:08:36;;;;;;;;;;;1.30;99.90;;;;;;5083375;28;19931;-78
2021/12/19 10:11:06;;;;;;;;;;;1.30;99.90;;;;;;5075644;28;20286;-80
2021/12/19 10:13:35;;;;;;;;;;;1.30;99.90;;;;;;5079910;28;19949;-80
2021/12/19 10:16:24;;;;;;;;;;;1.30;99.90;;;;;;5073502;28;20018;-81
2021/12/19 10:18:51;;;;;;;;;;;1.30;99.90;;;;;;5088776;28;19951;-78
2021/12/19 10:21:19;;;;;;;;;;;1.30;99.90;;;;;;5076309;28;20384;-80
2021/12/19 10:23:46;;;;;;;;;;;1.30;99.90;;;;;;5089600;28;19943;-79
2021/12/19 10:26:13;;;;;;;;;;;1.30;99.90;;;;;;5084083;28;19924;-80
2021/12/19 10:28:50;;;;;;;;;;;1.30;99.90;;;;;;5092079;28;20390;-80
2021/12/19 10:31:17;;;;;;;;;;;1.30;99.90;;;;;;5088256;28;19927;-81
2021/12/19 10:33:44;;;;;;;;;;;1.30;99.90;;;;;;5098167;28;19976;-81
2021/12/19 10:36:12;;;;;;;;;;;1.30;99.90;;;;;;5386728;22;19946;-81
2021/12/19 10:38:43;;;;;;;;;;;1.30;99.90;;;;;;5114113;27;19922;-86
2021/12/19 10:41:13;;;;;;;;;;;1.30;99.90;;;;;;5119021;28;19932;-84
2021/12/19 10:43:44;;;;;;;;;;;1.30;99.90;;;;;;5079480;28;19924;-80
2021/12/19 10:46:13;;;;;;;;;;;1.30;99.90;;;;;;5075060;28;20034;-79
2021/12/19 10:48:41;;;;;;;;;;;1.30;99.90;;;;;;5084855;28;19932;-79
2021/12/19 10:51:09;;;;;;;;;;;1.30;99.90;;;;;;5086925;28;20031;-80
2021/12/19 10:53:38;;;;;;;;;;;1.30;99.90;;;;;;5092690;28;19915;-81
2021/12/19 10:56:08;;;;;;;;;;;1.30;99.90;;;;;;5079635;28;20401;-80
2021/12/19 10:58:42;;;;;;;;;;;1.30;99.90;;;;;;5109144;28;19928;-79
2021/12/19 11:01:13;;;;;;;;;;;1.30;99.90;;;;;;5062435;28;19928;-78
2021/12/19 11:03:43;;;;;;;;;;;1.30;99.90;;;;;;5088416;28;19967;-79
2021/12/19 11:06:23;;;;;;;;;;;1.30;99.90;;;;;;5085182;28;19938;-79
2021/12/19 11:08:51;;;;;;;;;;;1.30;99.90;;;;;;5074133;28;19928;-78
2021/12/19 11:11:32;;;;;;;;;;;1.30;99.90;;;;;;5069374;28;19986;-79
2021/12/19 11:13:59;;;;;;;;;;;1.30;99.90;;;;;;5069202;28;20018;-78
2021/12/19 11:16:26;;;;;;;;;;;1.30;99.90;;;;;;5071622;28;19967;-79
2021/12/19 11:18:54;;;;;;;;;;;1.30;99.90;;;;;;5084223;28;19935;-80
2021/12/19 11:21:22;;;;;;;;;;;1.40;99.90;;;;;;5100969;28;19932;-79
2021/12/19 11:23:49;;;;;;;;;;;1.40;99.90;;;;;;5105301;28;20704;-80
2021/12/19 11:26:18;;;;;;;;;;;1.40;99.90;;;;;;5086343;28;19932;-79
2021/12/19 11:28:45;;;;;;;;;;;1.40;99.90;;;;;;5074859;28;19975;-79
2021/12/19 11:31:12;;;;;;;;;;;1.40;99.90;;;;;;5079782;28;19924;-79
2021/12/19 11:33:42;;;;;;;;;;;1.50;99.90;;;;;;5088503;28;19924;-78
2021/12/19 11:36:10;;;;;;;;;;;1.50;99.90;;;;;;5071727;28;19924;-79
2021/12/19 11:38:38;;;;;;;;;;;1.50;99.90;;;;;;5078677;28;20389;-78
2021/12/19 11:41:08;;;;;;;;;;;1.40;99.90;;;;;;5085114;28;19924;-79
2021/12/19 11:43:39;;;;;;;;;;;1.40;99.90;;;;;;5071564;28;19925;-79
2021/12/19 11:46:13;;;;;;;;;;;1.40;99.90;;;;;;5071615;28;20416;-78
2021/12/19 11:48:40;;;;;;;;;;;1.50;99.90;;;;;;5086151;28;19930;-78
2021/12/19 11:51:08;;;;;;;;;;;1.50;99.90;;;;;;5089953;28;20109;-78
2021/12/19 11:53:38;;;;;;;;;;;1.40;99.90;;;;;;5086475;28;19992;-79
2021/12/19 11:56:09;;;;;;;;;;;1.40;99.90;;;;;;5079400;28;19931;-79
2021/12/19 11:58:45;;;;;;;;;;;1.40;99.90;;;;;;5081076;28;19924;-79
2021/12/19 12:01:12;;;;;;;;;;;1.40;99.90;;;;;;5066875;28;19931;-79
2021/12/19 12:03:50;;;;;;;;;;;1.50;99.90;;;;;;5081301;28;19935;-79
2021/12/19 12:06:34;;;;;;;;;;;1.50;99.90;;;;;;5094045;28;19924;-78
2021/12/19 12:09:07;;;;;;;;;;;1.50;99.90;;;;;;5097785;28;19924;-79
2021/12/19 12:11:34;;;;;;;;;;;1.50;99.90;;;;;;5086605;28;19930;-78
2021/12/19 12:14:16;;;;;;;;;;;1.50;99.90;;;;;;5080807;28;20378;-79
2021/12/19 12:16:51;;;;;;;;;;;1.50;99.90;;;;;;5069810;28;19924;-78
2021/12/19 12:19:36;;;;;;;;;;;1.50;99.90;;;;;;5072581;28;19930;-79
2021/12/19 12:22:18;;;;;;;;;;;1.50;99.90;;;;;;5078968;28;19931;-79
2021/12/19 12:25:04;;;;;;;;;;;1.50;99.90;;;;;;5096977;28;20262;-79
2021/12/19 12:27:34;;;;;;;;;;;1.50;99.90;;;;;;5067093;28;19935;-79
2021/12/19 12:30:01;;;;;;;;;;;1.50;99.90;;;;;;5072643;28;20290;-79
2021/12/19 12:32:28;;;;;;;;;;;1.50;99.90;;;;;;5085316;28;20379;-79
2021/12/19 12:34:55;;;;;;;;;;;1.50;99.90;;;;;;5088774;28;19924;-79
2021/12/19 12:37:22;;;;;;;;;;;1.50;99.90;;;;;;5068301;28;20469;-79
2021/12/19 12:39:49;;;;;;;;;;;1.50;99.90;;;;;;5067306;28;19932;-79
2021/12/19 12:42:18;;;;;;;;;;;1.50;99.90;;;;;;5064870;28;19924;-79
2021/12/19 12:44:45;;;;;;;;;;;1.60;99.90;;;;;;5065109;28;19954;-79
2021/12/19 12:47:15;;;;;;;;;;;1.60;99.90;;;;;;5082356;28;20019;-80
2021/12/19 12:49:42;;;;;;;;;;;1.60;99.90;;;;;;5073259;28;19963;-79
2021/12/19 12:52:10;;;;;;;;;;;1.60;99.90;;;;;;5088010;28;20420;-80
2021/12/19 12:54:39;;;;;;;;;;;1.60;99.90;;;;;;5070176;28;19970;-79
2021/12/19 12:57:09;;;;;;;;;;;1.60;99.90;;;;;;5085831;28;19928;-79
2021/12/19 12:59:39;;;;;;;;;;;1.60;99.90;;;;;;5076572;28;19929;-79
2021/12/19 13:02:10;;;;;;;;;;;1.60;99.90;;;;;;5071748;28;19924;-80
2021/12/19 13:04:38;;;;;;;;;;;1.60;99.90;;;;;;5074632;28;19977;-80
2021/12/19 13:07:06;;;;;;;;;;;1.60;99.90;;;;;;5084407;28;19935;-79
2021/12/19 13:09:35;;;;;;;;;;;1.60;99.90;;;;;;5086212;28;19928;-79
2021/12/19 13:12:07;;;;;;;;;;;1.60;99.90;;;;;;5068367;28;19924;-79
2021/12/19 13:14:35;;;;;;;;;;;1.60;99.90;;;;;;5095329;28;19938;-79
2021/12/19 13:17:05;;;;;;;;;;;1.60;99.90;;;;;;5069043;28;19947;-78
2021/12/19 13:19:46;;;;;;;;;;;1.60;99.90;;;;;;5072931;28;19932;-79
2021/12/19 13:22:14;;;;;;;;;;;1.60;99.90;;;;;;5080381;28;19931;-79
2021/12/19 13:24:42;;;;;;;;;;;1.60;99.90;;;;;;5081180;28;19924;-79
2021/12/19 13:27:10;;;;;;;;;;;1.70;99.90;;;;;;5078758;28;19931;-80
2021/12/19 13:29:38;;;;;;;;;;;1.60;99.90;;;;;;5071754;28;19924;-82
2021/12/19 13:32:18;;;;;;;;;;;1.70;99.90;;;;;;5073053;28;20338;-81
2021/12/19 13:34:45;;;;;;;;;;;1.70;99.90;;;;;;5066519;28;20416;-81
2021/12/19 13:37:11;;;;;;;;;;;1.70;99.90;;;;;;5088425;28;20467;-81
2021/12/19 13:39:38;;;;;;;;;;;1.70;99.90;;;;;;5088976;28;19924;-81
2021/12/19 13:42:06;;;;;;;;;;;1.70;99.90;;;;;;5068792;28;19924;-81
2021/12/19 13:44:33;;;;;;;;;;;1.70;99.90;;;;;;5087116;28;19924;-83
2021/12/19 13:47:09;;;;;;;;;;;1.70;99.90;;;;;;5064716;28;19924;-81
2021/12/19 13:49:38;;;;;;;;;;;1.70;99.90;;;;;;5084976;28;19936;-82
2021/12/19 13:52:05;;;;;;;;;;;1.70;99.90;;;;;;5083706;28;19938;-81
2021/12/19 13:54:34;;;;;;;;;;;1.70;99.90;;;;;;5071343;28;19966;-81
2021/12/19 13:57:01;;;;;;;;;;;1.70;99.90;;;;;;5082605;28;20462;-81
2021/12/19 13:59:28;;;;;;;;;;;1.70;99.90;;;;;;5072161;28;19924;-81
2021/12/19 14:01:55;;;;;;;;;;;1.70;99.90;;;;;;5071597;28;19928;-81
2021/12/19 14:04:24;;;;;;;;;;;1.70;99.90;;;;;;5087532;28;19924;-81
2021/12/19 14:06:57;;;;;;;;;;;1.70;99.90;;;;;;5097511;28;19924;-81
2021/12/19 14:09:24;;;;;;;;;;;1.70;99.90;;;;;;5085612;28;19997;-81
2021/12/19 14:11:56;;;;;;;;;;;1.70;99.90;;;;;;5064196;28;19924;-82
2021/12/19 14:14:26;;;;;;;;;;;1.70;99.90;;;;;;5083073;28;19924;-81
2021/12/19 14:16:57;;;;;;;;;;;1.70;99.90;;;;;;5070022;28;20094;-81
2021/12/19 14:19:25;;;;;;;;;;;1.70;99.90;;;;;;5071304;28;19924;-84
2021/12/19 14:21:54;;;;;;;;;;;1.70;99.90;;;;;;5071696;28;19931;-81
2021/12/19 14:24:35;;;;;;;;;;;1.70;99.90;;;;;;5072265;28;19924;-81
2021/12/19 14:27:07;;;;;;;;;;;1.70;99.90;;;;;;5087331;28;20305;-81
2021/12/19 14:29:36;;;;;;;;;;;1.70;99.90;;;;;;5068889;28;19924;-81
2021/12/19 14:32:09;;;;;;;;;;;1.70;99.90;;;;;;5073957;28;19938;-82
2021/12/19 14:34:37;;;;;;;;;;;1.70;99.90;;;;;;5071084;28;20391;-90
2021/12/19 14:37:16;;;;;;;;;;;1.70;99.90;;;;;;5072690;28;20007;-81
2021/12/19 14:39:43;;;;;;;;;;;1.70;99.90;;;;;;5073657;28;19932;-81
2021/12/19 14:42:12;;;;;;;;;;;1.70;99.90;;;;;;5079073;28;19931;-82
2021/12/19 14:44:39;;;;;;;;;;;1.70;99.90;;;;;;5077707;28;19924;-82
2021/12/19 14:47:07;;;;;;;;;;;1.70;99.90;;;;;;5079415;28;20389;-82
2021/12/19 14:49:38;;;;;;;;;;;1.80;99.90;;;;;;5068329;28;19974;-81
2021/12/19 14:52:05;;;;;;;;;;;1.80;99.90;;;;;;5070311;28;19924;-82
2021/12/19 14:54:33;;;;;;;;;;;1.70;99.90;;;;;;5089427;28;19985;-81
2021/12/19 14:57:01;;;;;;;;;;;1.80;99.90;;;;;;5074137;28;19946;-81
2021/12/19 14:59:28;;;;;;;;;;;1.80;99.90;;;;;;5062242;28;19924;-81
2021/12/19 15:01:56;;;;;;;;;;;1.80;99.90;;;;;;5087436;28;19930;-83
2021/12/19 15:04:25;;;;;;;;;;;1.80;99.90;;;;;;5072791;28;19924;-81
2021/12/19 15:06:58;;;;;;;;;;;1.80;99.90;;;;;;5075824;28;19925;-84
2021/12/19 15:09:29;;;;;;;;;;;1.80;99.90;;;;;;5092189;28;19932;-81
2021/12/19 15:12:00;;;;;;;;;;;1.80;99.90;;;;;;5070350;28;20428;-81
2021/12/19 15:14:29;;;;;;;;;;;1.80;99.90;;;;;;5068637;28;20303;-80
2021/12/19 15:16:56;;;;;;;;;;;1.80;99.90;;;;;;5077558;28;19935;-81
2021/12/19 15:19:25;;;;;;;;;;;1.70;99.90;;;;;;5090438;28;19932;-81
2021/12/19 15:21:52;;;;;;;;;;;1.80;99.90;;;;;;5103027;28;19963;-83
2021/12/19 15:24:19;;;;;;;;;;;1.80;99.90;;;;;;5069954;28;19923;-83
2021/12/19 15:26:47;;;;;;;;;;;1.80;99.90;;;;;;5070293;28;19928;-81
2021/12/19 15:29:15;;;;;;;;;;;1.80;99.90;;;;;;5090524;28;19938;-82
2021/12/19 15:31:42;;;;;;;;;;;1.80;99.90;;;;;;5086723;28;20381;-82
2021/12/19 15:34:10;;;;;;;;;;;1.80;99.90;;;;;;5097402;28;19932;-84